Back to Top

Language: 

My Weather Underground Personal Weather Station Historical Data with Graphs...

Delerius Weather Station Historical Data
Daily Summary for April 18, 2017 Units:  English    Metric   Both
« Previous Day
Next Day »
Daily Weekly Monthly Yearly Custom
  High: Low: Average:
Temperature: 53.6 °F 33.1 °F 44.9 °F
Dew Point: 38.6 °F 29.3 °F 34 °F
Humidity: 88 % 41 % 67 %
Wind Speed: 10.0 mph 0.0 mph 3.9 mph
Wind Gust: 19.0 mph - -
Wind:- - SE
Pressure: 30.60 in 30.36 in -
Precipitation: 0.00 in    
Historical Graphs
 
 
Tabular Data for April 18, 2017
Time Temperature Dew Point Pressure Wind Wind Speed Wind Gust Humidity Rainfall Rate (Hourly) solar Conditions
00:01 43.7 °F 38.6 °F 30.36 in North 9.0 mph 19.0 mph 82 % 0.00 in 0 W/m2
00:06 43.3 °F 38.2 °F 30.36 in North 9.0 mph 19.0 mph 82 % 0.00 in 0 W/m2
00:11 43.3 °F 38.2 °F 30.37 in NNE 8.0 mph 18.0 mph 82 % 0.00 in 0 W/m2
00:16 43.2 °F 38.0 °F 30.37 in NNE 7.0 mph 18.0 mph 82 % 0.00 in 0 W/m2
00:21 43.0 °F 37.5 °F 30.37 in NNE 8.0 mph 15.0 mph 81 % 0.00 in 0 W/m2
00:26 42.8 °F 37.4 °F 30.37 in NNE 7.0 mph 14.0 mph 81 % 0.00 in 0 W/m2
00:31 42.6 °F 37.2 °F 30.37 in NNE 6.0 mph 14.0 mph 81 % 0.00 in 0 W/m2
00:36 42.4 °F 37.0 °F 30.38 in NNE 7.0 mph 18.0 mph 81 % 0.00 in 0 W/m2
00:41 42.4 °F 37.0 °F 30.38 in NNE 8.0 mph 18.0 mph 81 % 0.00 in 0 W/m2
00:46 42.3 °F 36.8 °F 30.38 in NNE 7.0 mph 16.0 mph 81 % 0.00 in 0 W/m2
00:51 42.1 °F 36.4 °F 30.38 in NNE 7.0 mph 16.0 mph 80 % 0.00 in 0 W/m2
00:57 42.1 °F 36.4 °F 30.39 in NNE 8.0 mph 16.0 mph 80 % 0.00 in 0 W/m2
01:02 42.1 °F 36.4 °F 30.39 in NNE 8.0 mph 14.0 mph 80 % 0.00 in 0 W/m2
01:07 41.9 °F 35.9 °F 30.39 in NNE 8.0 mph 13.0 mph 79 % 0.00 in 0 W/m2
01:12 41.7 °F 35.7 °F 30.39 in North 8.0 mph 16.0 mph 79 % 0.00 in 0 W/m2
01:13 41.7 °F 35.4 °F 30.39 in North 8.0 mph 16.0 mph 78 % 0.00 in 0 W/m2
01:18 41.5 °F 35.5 °F 30.39 in NNE 9.0 mph 16.0 mph 79 % 0.00 in 0 W/m2
01:23 41.4 °F 35.3 °F 30.40 in NNE 8.0 mph 15.0 mph 79 % 0.00 in 0 W/m2
01:28 41.2 °F 35.2 °F 30.40 in NNE 8.0 mph 15.0 mph 79 % 0.00 in 0 W/m2
01:33 40.8 °F 34.5 °F 30.40 in NNE 10.0 mph 18.0 mph 78 % 0.00 in 0 W/m2
01:38 40.6 °F 34.3 °F 30.40 in NNE 9.0 mph 18.0 mph 78 % 0.00 in 0 W/m2
01:43 40.5 °F 34.1 °F 30.40 in NNE 8.0 mph 15.0 mph 78 % 0.00 in 0 W/m2
01:48 40.3 °F 34.0 °F 30.40 in NNE 8.0 mph 15.0 mph 78 % 0.00 in 0 W/m2
01:53 40.3 °F 33.6 °F 30.40 in NNE 8.0 mph 15.0 mph 77 % 0.00 in 0 W/m2
01:58 40.1 °F 33.1 °F 30.40 in NNE 9.0 mph 15.0 mph 76 % 0.00 in 0 W/m2
02:03 39.9 °F 33.0 °F 30.41 in NNE 8.0 mph 15.0 mph 76 % 0.00 in 0 W/m2
02:08 39.7 °F 32.8 °F 30.41 in North 7.0 mph 11.0 mph 76 % 0.00 in 0 W/m2
02:13 39.7 °F 32.5 °F 30.40 in North 7.0 mph 13.0 mph 75 % 0.00 in 0 W/m2
02:18 39.7 °F 32.5 °F 30.40 in North 8.0 mph 14.0 mph 75 % 0.00 in 0 W/m2
02:23 39.6 °F 32.6 °F 30.40 in NNE 7.0 mph 14.0 mph 76 % 0.00 in 0 W/m2
02:28 39.4 °F 32.4 °F 30.40 in NNE 6.0 mph 10.0 mph 76 % 0.00 in 0 W/m2
02:33 39.4 °F 32.1 °F 30.40 in NNE 7.0 mph 13.0 mph 75 % 0.00 in 0 W/m2
02:38 39.4 °F 32.4 °F 30.40 in NNE 7.0 mph 13.0 mph 76 % 0.00 in 0 W/m2
02:43 39.0 °F 32.1 °F 30.40 in NNE 6.0 mph 12.0 mph 76 % 0.00 in 0 W/m2
02:48 39.0 °F 32.1 °F 30.40 in North 6.0 mph 11.0 mph 76 % 0.00 in 0 W/m2
02:53 39.0 °F 31.8 °F 30.40 in North 4.0 mph 11.0 mph 75 % 0.00 in 0 W/m2
02:58 38.8 °F 31.9 °F 30.41 in North 3.0 mph 8.0 mph 76 % 0.00 in 0 W/m2
03:03 38.8 °F 31.9 °F 30.41 in NNW 4.0 mph 11.0 mph 76 % 0.00 in 0 W/m2
03:08 38.7 °F 31.7 °F 30.41 in NNW 4.0 mph 11.0 mph 76 % 0.00 in 0 W/m2
03:13 38.7 °F 31.7 °F 30.41 in North 4.0 mph 10.0 mph 76 % 0.00 in 0 W/m2
03:18 38.5 °F 31.6 °F 30.41 in NNW 4.0 mph 10.0 mph 76 % 0.00 in 0 W/m2
03:23 38.3 °F 31.7 °F 30.41 in NNW 3.0 mph 8.0 mph 77 % 0.00 in 0 W/m2
03:28 38.1 °F 31.5 °F 30.41 in NNW 3.0 mph 8.0 mph 77 % 0.00 in 0 W/m2
03:33 37.9 °F 31.4 °F 30.41 in NNW 4.0 mph 9.0 mph 77 % 0.00 in 0 W/m2
03:38 37.8 °F 31.5 °F 30.41 in NNW 3.0 mph 9.0 mph 78 % 0.00 in 0 W/m2
03:43 37.8 °F 31.5 °F 30.41 in NNW 3.0 mph 8.0 mph 78 % 0.00 in 0 W/m2
03:48 37.6 °F 31.3 °F 30.42 in NNW 3.0 mph 12.0 mph 78 % 0.00 in 0 W/m2
03:53 37.6 °F 31.3 °F 30.42 in North 4.0 mph 12.0 mph 78 % 0.00 in 0 W/m2
03:58 37.6 °F 31.3 °F 30.42 in North 4.0 mph 8.0 mph 78 % 0.00 in 0 W/m2
04:03 37.6 °F 31.7 °F 30.42 in North 4.0 mph 8.0 mph 79 % 0.00 in 0 W/m2
04:08 37.4 °F 31.5 °F 30.42 in North 4.0 mph 9.0 mph 79 % 0.00 in 0 W/m2
04:13 37.4 °F 31.5 °F 30.42 in North 4.0 mph 9.0 mph 79 % 0.00 in 0 W/m2
04:18 37.2 °F 31.3 °F 30.42 in NNW 2.0 mph 7.0 mph 79 % 0.00 in 0 W/m2
04:23 37.2 °F 31.3 °F 30.42 in NNW 3.0 mph 9.0 mph 79 % 0.00 in 0 W/m2
04:29 37.0 °F 31.1 °F 30.42 in NNW 4.0 mph 9.0 mph 79 % 0.00 in 0 W/m2
04:34 37.0 °F 31.1 °F 30.42 in NNW 3.0 mph 8.0 mph 79 % 0.00 in 0 W/m2
04:39 36.9 °F 31.0 °F 30.42 in NNW 2.0 mph 7.0 mph 79 % 0.00 in 0 W/m2
04:44 36.7 °F 31.1 °F 30.42 in NW 1.0 mph 6.0 mph 80 % 0.00 in 0 W/m2
04:49 36.3 °F 30.7 °F 30.43 in NW 1.0 mph 6.0 mph 80 % 0.00 in 0 W/m2
04:54 36.1 °F 30.6 °F 30.43 in NNW 2.0 mph 6.0 mph 80 % 0.00 in 0 W/m2
04:59 36.0 °F 30.7 °F 30.43 in NNW 2.0 mph 6.0 mph 81 % 0.00 in 0 W/m2
05:04 35.8 °F 30.5 °F 30.43 in NW 1.0 mph 5.0 mph 81 % 0.00 in 0 W/m2
05:09 35.4 °F 30.2 °F 30.43 in NW 1.0 mph 5.0 mph 81 % 0.00 in 0 W/m2
05:14 35.2 °F 30.3 °F 30.43 in NW 1.0 mph 5.0 mph 82 % 0.00 in 0 W/m2
05:19 35.2 °F 30.3 °F 30.43 in NW 1.0 mph 4.0 mph 82 % 0.00 in 0 W/m2
05:24 35.1 °F 30.1 °F 30.44 in NW 1.0 mph 4.0 mph 82 % 0.00 in 0 W/m2
05:29 34.9 °F 30.2 °F 30.44 in NW 1.0 mph 4.0 mph 83 % 0.00 in 0 W/m2
05:34 34.5 °F 29.9 °F 30.44 in Calm   2.0 mph 83 % 0.00 in 0 W/m2
05:39 34.3 °F 29.7 °F 30.44 in Calm   1.0 mph 83 % 0.00 in 0 W/m2
05:44 34.2 °F 29.8 °F 30.44 in Calm   2.0 mph 84 % 0.00 in 0 W/m2
05:49 34.0 °F 29.7 °F 30.45 in Calm   2.0 mph 84 % 0.00 in 0 W/m2
05:54 33.6 °F 29.6 °F 30.45 in NW 1.0 mph 5.0 mph 85 % 0.00 in 5 W/m2
05:59 33.6 °F 29.6 °F 30.45 in WNW 2.0 mph 6.0 mph 85 % 0.00 in 7 W/m2
06:04 33.4 °F 29.7 °F 30.45 in WNW 2.0 mph 6.0 mph 86 % 0.00 in 9 W/m2
06:09 33.4 °F 29.7 °F 30.45 in WNW 2.0 mph 5.0 mph 86 % 0.00 in 12 W/m2
06:14 33.4 °F 29.7 °F 30.45 in WNW 1.0 mph 4.0 mph 86 % 0.00 in 18 W/m2
06:19 33.3 °F 29.5 °F 30.46 in Calm   2.0 mph 86 % 0.00 in 21 W/m2
06:24 33.1 °F 29.3 °F 30.46 in Calm   2.0 mph 86 % 0.00 in 25 W/m2
06:29 33.1 °F 29.3 °F 30.45 in Calm   3.0 mph 86 % 0.00 in 26 W/m2
06:34 33.1 °F 29.6 °F 30.46 in Calm   3.0 mph 87 % 0.00 in 30 W/m2
06:39 33.1 °F 29.6 °F 30.46 in Calm   1.0 mph 87 % 0.00 in 32 W/m2
06:44 33.1 °F 29.6 °F 30.46 in Calm   1.0 mph 87 % 0.00 in 33 W/m2
06:49 33.3 °F 30.1 °F 30.46 in Calm   2.0 mph 88 % 0.00 in 35 W/m2
06:50 33.3 °F 30.1 °F 30.46 in Calm   2.0 mph 88 % 0.00 in 35 W/m2
06:55 33.4 °F 30.3 °F 30.46 in Calm   2.0 mph 88 % 0.00 in 44 W/m2
07:00 33.4 °F 30.3 °F 30.47 in Calm   2.0 mph 88 % 0.00 in 53 W/m2
07:05 33.6 °F 30.4 °F 30.47 in Calm   2.0 mph 88 % 0.00 in 83 W/m2
07:10 34.2 °F 31.0 °F 30.47 in Calm   2.0 mph 88 % 0.00 in 137 W/m2
07:15 34.7 °F 31.5 °F 30.47 in Calm   2.0 mph 88 % 0.00 in 156 W/m2
07:16 34.9 °F 31.7 °F 30.47 in Calm   2.0 mph 88 % 0.00 in 156 W/m2
07:21 35.6 °F 32.4 °F 30.47 in Calm   2.0 mph 88 % 0.00 in 172 W/m2
07:26 36.3 °F 32.5 °F 30.47 in Calm   2.0 mph 86 % 0.00 in 178 W/m2
07:31 36.9 °F 32.5 °F 30.47 in WNW 1.0 mph 4.0 mph 84 % 0.00 in 155 W/m2
07:36 37.0 °F 32.4 °F 30.47 in WNW 1.0 mph 4.0 mph 83 % 0.00 in 207 W/m2
07:41 37.8 °F 32.8 °F 30.47 in NW 1.0 mph 6.0 mph 82 % 0.00 in 223 W/m2
07:46 38.7 °F 33.0 °F 30.48 in NNW 1.0 mph 6.0 mph 80 % 0.00 in 232 W/m2
07:51 39.4 °F 33.1 °F 30.48 in NW 1.0 mph 6.0 mph 78 % 0.00 in 237 W/m2
07:56 40.3 °F 33.3 °F 30.48 in NNW 2.0 mph 7.0 mph 76 % 0.00 in 250 W/m2
08:01 41.0 °F 33.3 °F 30.48 in NNW 3.0 mph 8.0 mph 74 % 0.00 in 269 W/m2
08:06 41.5 °F 33.5 °F 30.48 in NNW 3.0 mph 8.0 mph 73 % 0.00 in 285 W/m2
08:11 41.9 °F 33.2 °F 30.49 in NNW 4.0 mph 10.0 mph 71 % 0.00 in 295 W/m2
08:16 42.1 °F 33.0 °F 30.49 in NNW 5.0 mph 10.0 mph 70 % 0.00 in 306 W/m2
08:21 42.4 °F 33.3 °F 30.49 in NNW 4.0 mph 10.0 mph 70 % 0.00 in 323 W/m2
08:26 43.0 °F 33.5 °F 30.49 in NNW 4.0 mph 9.0 mph 69 % 0.00 in 341 W/m2
08:31 43.5 °F 33.7 °F 30.49 in NNW 4.0 mph 10.0 mph 68 % 0.00 in 353 W/m2
08:36 43.9 °F 33.6 °F 30.49 in NNW 4.0 mph 10.0 mph 67 % 0.00 in 366 W/m2
08:41 44.1 °F 33.8 °F 30.50 in NNW 4.0 mph 10.0 mph 67 % 0.00 in 380 W/m2
08:46 44.2 °F 33.6 °F 30.50 in NNW 4.0 mph 9.0 mph 66 % 0.00 in 396 W/m2
08:51 44.6 °F 33.6 °F 30.50 in NNW 5.0 mph 10.0 mph 65 % 0.00 in 468 W/m2
08:56 45.0 °F 33.9 °F 30.50 in NNW 4.0 mph 10.0 mph 65 % 0.00 in 432 W/m2
09:01 45.3 °F 34.2 °F 30.50 in North 4.0 mph 9.0 mph 65 % 0.00 in 446 W/m2
09:06 45.5 °F 33.6 °F 30.50 in North 6.0 mph 12.0 mph 63 % 0.00 in 461 W/m2
09:11 45.5 °F 34.0 °F 30.50 in North 6.0 mph 12.0 mph 64 % 0.00 in 469 W/m2
09:16 45.7 °F 33.8 °F 30.50 in North 6.0 mph 12.0 mph 63 % 0.00 in 480 W/m2
09:21 45.9 °F 34.0 °F 30.50 in North 6.0 mph 12.0 mph 63 % 0.00 in 501 W/m2
09:27 45.9 °F 34.0 °F 30.50 in NNE 5.0 mph 11.0 mph 63 % 0.00 in 515 W/m2
09:32 45.9 °F 33.6 °F 30.50 in NE 4.0 mph 11.0 mph 62 % 0.00 in 522 W/m2
09:37 45.9 °F 33.2 °F 30.50 in NE 3.0 mph 8.0 mph 61 % 0.00 in 533 W/m2
09:42 46.0 °F 33.3 °F 30.50 in NE 4.0 mph 11.0 mph 61 % 0.00 in 550 W/m2
09:47 46.0 °F 32.9 °F 30.50 in NNE 5.0 mph 11.0 mph 60 % 0.00 in 564 W/m2
09:52 46.6 °F 33.0 °F 30.50 in North 2.0 mph 8.0 mph 59 % 0.00 in 575 W/m2
09:57 47.1 °F 33.9 °F 30.51 in North 2.0 mph 9.0 mph 60 % 0.00 in 596 W/m2
10:02 47.5 °F 33.4 °F 30.51 in NE 5.0 mph 11.0 mph 58 % 0.00 in 603 W/m2
10:07 47.3 °F 33.3 °F 30.51 in NE 6.0 mph 12.0 mph 58 % 0.00 in 622 W/m2
10:12 47.5 °F 33.9 °F 30.51 in NE 3.0 mph 12.0 mph 59 % 0.00 in 628 W/m2
10:17 47.8 °F 33.8 °F 30.51 in NNE 2.0 mph 9.0 mph 58 % 0.00 in 636 W/m2
10:22 48.0 °F 33.9 °F 30.51 in NNE 3.0 mph 11.0 mph 58 % 0.00 in 666 W/m2
10:27 48.2 °F 33.2 °F 30.51 in North 5.0 mph 11.0 mph 56 % 0.00 in 654 W/m2
10:32 47.8 °F 32.9 °F 30.51 in NE 7.0 mph 11.0 mph 56 % 0.00 in 700 W/m2
10:37 47.8 °F 32.9 °F 30.51 in ENE 6.0 mph 11.0 mph 56 % 0.00 in 751 W/m2
10:42 47.7 °F 34.0 °F 30.51 in NE 6.0 mph 12.0 mph 59 % 0.00 in 752 W/m2
10:47 47.7 °F 33.2 °F 30.51 in NE 6.0 mph 13.0 mph 57 % 0.00 in 775 W/m2
10:52 47.8 °F 34.6 °F 30.51 in ENE 5.0 mph 13.0 mph 60 % 0.00 in 796 W/m2
10:57 48.2 °F 33.7 °F 30.51 in ENE 5.0 mph 13.0 mph 57 % 0.00 in 770 W/m2
11:02 48.2 °F 34.1 °F 30.51 in NE 6.0 mph 13.0 mph 58 % 0.00 in 169 W/m2
11:07 47.8 °F 33.8 °F 30.51 in NE 5.0 mph 13.0 mph 58 % 0.00 in 202 W/m2
11:12 47.3 °F 33.7 °F 30.51 in NE 5.0 mph 13.0 mph 59 % 0.00 in 192 W/m2
11:17 46.9 °F 33.8 °F 30.51 in NE 6.0 mph 13.0 mph 60 % 0.00 in 229 W/m2
11:22 46.8 °F 34.0 °F 30.52 in NE 6.0 mph 13.0 mph 61 % 0.00 in 860 W/m2
11:27 47.3 °F 34.5 °F 30.52 in NE 7.0 mph 13.0 mph 61 % 0.00 in 821 W/m2
11:32 47.7 °F 34.4 °F 30.51 in ENE 6.0 mph 12.0 mph 60 % 0.00 in 884 W/m2
11:37 48.6 °F 34.9 °F 30.51 in East 6.0 mph 11.0 mph 59 % 0.00 in 881 W/m2
11:42 49.5 °F 35.3 °F 30.51 in ENE 5.0 mph 10.0 mph 58 % 0.00 in 856 W/m2
11:47 49.6 °F 35.0 °F 30.51 in ENE 4.0 mph 10.0 mph 57 % 0.00 in 856 W/m2
11:52 49.5 °F 34.4 °F 30.51 in ENE 6.0 mph 14.0 mph 56 % 0.00 in 847 W/m2
11:57 49.6 °F 34.6 °F 30.51 in NE 7.0 mph 14.0 mph 56 % 0.00 in 197 W/m2
12:02 49.3 °F 34.7 °F 30.51 in NE 7.0 mph 14.0 mph 57 % 0.00 in 803 W/m2
12:07 49.6 °F 35.0 °F 30.51 in ENE 6.0 mph 14.0 mph 57 % 0.00 in 838 W/m2
12:12 49.8 °F 35.2 °F 30.51 in ENE 5.0 mph 11.0 mph 57 % 0.00 in 809 W/m2
12:18 50.2 °F 36.0 °F 30.51 in ENE 6.0 mph 13.0 mph 58 % 0.00 in 564 W/m2
12:23 50.2 °F 36.0 °F 30.51 in ENE 7.0 mph 13.0 mph 58 % 0.00 in 339 W/m2
12:28 50.2 °F 36.0 °F 30.51 in ENE 6.0 mph 12.0 mph 58 % 0.00 in 800 W/m2
12:33 50.5 °F 35.4 °F 30.51 in NE 6.0 mph 11.0 mph 56 % 0.00 in 851 W/m2
12:38 50.7 °F 35.6 °F 30.51 in NE 5.0 mph 11.0 mph 56 % 0.00 in 805 W/m2
12:43 51.1 °F 35.0 °F 30.51 in NNE 5.0 mph 12.0 mph 54 % 0.00 in 406 W/m2
12:48 51.1 °F 34.1 °F 30.51 in ENE 5.0 mph 12.0 mph 52 % 0.00 in 838 W/m2
12:53 51.6 °F 34.6 °F 30.51 in East 5.0 mph 11.0 mph 52 % 0.00 in 385 W/m2
12:58 51.3 °F 34.2 °F 30.51 in ENE 6.0 mph 11.0 mph 52 % 0.00 in 352 W/m2
13:03 51.1 °F 35.5 °F 30.51 in NE 6.0 mph 14.0 mph 55 % 0.00 in 322 W/m2
13:08 50.4 °F 34.3 °F 30.51 in NE 7.0 mph 14.0 mph 54 % 0.00 in 352 W/m2
13:13 50.2 °F 34.6 °F 30.51 in NE 6.0 mph 12.0 mph 55 % 0.00 in 844 W/m2
13:18 50.7 °F 35.6 °F 30.51 in NE 4.0 mph 12.0 mph 56 % 0.00 in 940 W/m2
13:23 51.4 °F 34.9 °F 30.51 in ENE 4.0 mph 10.0 mph 53 % 0.00 in 951 W/m2
13:28 51.4 °F 34.9 °F 30.51 in NE 4.0 mph 9.0 mph 53 % 0.00 in 297 W/m2
13:33 51.3 °F 34.7 °F 30.51 in NNE 5.0 mph 13.0 mph 53 % 0.00 in 311 W/m2
13:38 50.7 °F 34.2 °F 30.51 in NE 7.0 mph 13.0 mph 53 % 0.00 in 267 W/m2
13:43 50.5 °F 34.5 °F 30.51 in ENE 5.0 mph 12.0 mph 54 % 0.00 in 821 W/m2
13:48 50.7 °F 33.7 °F 30.51 in East 5.0 mph 11.0 mph 52 % 0.00 in 816 W/m2
13:53 51.1 °F 34.1 °F 30.51 in ENE 6.0 mph 13.0 mph 52 % 0.00 in 874 W/m2
13:58 51.6 °F 34.6 °F 30.51 in ENE 6.0 mph 13.0 mph 52 % 0.00 in 881 W/m2
14:03 52.0 °F 34.4 °F 30.51 in NE 4.0 mph 10.0 mph 51 % 0.00 in 947 W/m2
14:08 52.9 °F 35.2 °F 30.51 in NE 3.0 mph 11.0 mph 51 % 0.00 in 188 W/m2
14:13 52.2 °F 33.6 °F 30.51 in NE 6.0 mph 11.0 mph 49 % 0.00 in 200 W/m2
14:18 51.6 °F 34.1 °F 30.51 in NE 5.0 mph 11.0 mph 51 % 0.00 in 863 W/m2
14:23 51.6 °F 33.1 °F 30.51 in ENE 4.0 mph 9.0 mph 49 % 0.00 in 190 W/m2
14:28 51.8 °F 33.2 °F 30.51 in East 4.0 mph 9.0 mph 49 % 0.00 in 802 W/m2
14:33 52.2 °F 33.0 °F 30.51 in East 4.0 mph 8.0 mph 48 % 0.00 in 814 W/m2
14:38 52.3 °F 33.7 °F 30.51 in East 3.0 mph 8.0 mph 49 % 0.00 in 853 W/m2
14:43 52.9 °F 34.7 °F 30.51 in East 3.0 mph 8.0 mph 50 % 0.00 in 923 W/m2
14:48 53.2 °F 34.6 °F 30.51 in East 3.0 mph 14.0 mph 49 % 0.00 in 896 W/m2
14:53 53.6 °F 34.4 °F 30.51 in ENE 5.0 mph 14.0 mph 48 % 0.00 in 865 W/m2
14:58 53.2 °F 34.0 °F 30.51 in NE 5.0 mph 10.0 mph 48 % 0.00 in 260 W/m2
15:03 52.9 °F 33.2 °F 30.51 in ENE 5.0 mph 10.0 mph 47 % 0.00 in 828 W/m2
15:08 52.2 °F 32.5 °F 30.51 in ENE 7.0 mph 12.0 mph 47 % 0.00 in 232 W/m2
15:10 51.8 °F 32.7 °F 30.51 in ENE 7.0 mph 12.0 mph 48 % 0.00 in 197 W/m2
15:15 51.3 °F 33.2 °F 30.51 in ENE 5.0 mph 11.0 mph 50 % 0.00 in 408 W/m2
15:20 51.4 °F 32.4 °F 30.51 in ENE 3.0 mph 9.0 mph 48 % 0.00 in 752 W/m2
15:25 51.6 °F 32.0 °F 30.51 in ENE 4.0 mph 11.0 mph 47 % 0.00 in 696 W/m2
15:30 52.0 °F 31.8 °F 30.51 in ENE 3.0 mph 11.0 mph 46 % 0.00 in 640 W/m2
15:35 52.3 °F 31.0 °F 30.51 in SE 2.0 mph 6.0 mph 44 % 0.00 in 489 W/m2
15:40 52.9 °F 31.5 °F 30.51 in South 1.0 mph 6.0 mph 44 % 0.00 in 519 W/m2
15:45 53.2 °F 31.9 °F 30.51 in ENE 1.0 mph 11.0 mph 44 % 0.00 in 408 W/m2
15:50 53.1 °F 33.3 °F 30.51 in NE 4.0 mph 12.0 mph 47 % 0.00 in 318 W/m2
15:55 52.5 °F 32.9 °F 30.51 in ENE 6.0 mph 12.0 mph 47 % 0.00 in 330 W/m2
16:00 52.3 °F 32.2 °F 30.51 in East 5.0 mph 10.0 mph 46 % 0.00 in 359 W/m2
16:05 52.3 °F 32.2 °F 30.51 in ESE 5.0 mph 10.0 mph 46 % 0.00 in 427 W/m2
16:11 52.7 °F 31.9 °F 30.51 in ESE 4.0 mph 9.0 mph 45 % 0.00 in 432 W/m2
16:16 52.9 °F 30.4 °F 30.51 in ESE 4.0 mph 9.0 mph 42 % 0.00 in 445 W/m2
16:21 52.9 °F 31.5 °F 30.51 in East 4.0 mph 9.0 mph 44 % 0.00 in 552 W/m2
16:26 52.5 °F 31.8 °F 30.51 in ENE 5.0 mph 13.0 mph 45 % 0.00 in 592 W/m2
16:31 52.5 °F 32.3 °F 30.51 in ENE 6.0 mph 13.0 mph 46 % 0.00 in 570 W/m2
16:36 52.5 °F 32.3 °F 30.51 in East 6.0 mph 11.0 mph 46 % 0.00 in 487 W/m2
16:41 52.5 °F 32.3 °F 30.51 in East 6.0 mph 12.0 mph 46 % 0.00 in 499 W/m2
16:46 52.5 °F 32.3 °F 30.51 in ENE 5.0 mph 12.0 mph 46 % 0.00 in 431 W/m2
16:51 52.7 °F 31.9 °F 30.51 in East 3.0 mph 8.0 mph 45 % 0.00 in 450 W/m2
16:56 52.7 °F 31.9 °F 30.51 in East 4.0 mph 10.0 mph 45 % 0.00 in 487 W/m2
17:01 52.7 °F 31.4 °F 30.51 in ESE 6.0 mph 10.0 mph 44 % 0.00 in 510 W/m2
17:06 53.1 °F 31.1 °F 30.51 in SE 5.0 mph 11.0 mph 43 % 0.00 in 417 W/m2
17:11 52.9 °F 30.4 °F 30.51 in ESE 5.0 mph 11.0 mph 42 % 0.00 in 246 W/m2
17:16 52.3 °F 29.3 °F 30.52 in East 5.0 mph 9.0 mph 41 % 0.00 in 244 W/m2
17:21 52.2 °F 30.3 °F 30.52 in East 4.0 mph 9.0 mph 43 % 0.00 in 267 W/m2
17:26 52.2 °F 32.0 °F 30.52 in ESE 4.0 mph 9.0 mph 46 % 0.00 in 364 W/m2
17:31 52.0 °F 32.9 °F 30.52 in East 4.0 mph 11.0 mph 48 % 0.00 in 332 W/m2
17:36 52.0 °F 33.4 °F 30.52 in NE 4.0 mph 11.0 mph 49 % 0.00 in 176 W/m2
17:41 51.4 °F 31.3 °F 30.52 in NE 5.0 mph 9.0 mph 46 % 0.00 in 178 W/m2
17:46 51.3 °F 31.2 °F 30.52 in ENE 5.0 mph 10.0 mph 46 % 0.00 in 197 W/m2
17:51 51.1 °F 32.1 °F 30.53 in ENE 4.0 mph 10.0 mph 48 % 0.00 in 200 W/m2
17:56 51.1 °F 33.6 °F 30.53 in East 3.0 mph 7.0 mph 51 % 0.00 in 186 W/m2
18:01 51.1 °F 33.1 °F 30.53 in ESE 4.0 mph 12.0 mph 50 % 0.00 in 167 W/m2
18:06 51.1 °F 33.1 °F 30.53 in ESE 6.0 mph 12.0 mph 50 % 0.00 in 130 W/m2
18:11 50.9 °F 33.4 °F 30.53 in ESE 5.0 mph 11.0 mph 51 % 0.00 in 125 W/m2
18:12 50.7 °F 33.2 °F 30.53 in ESE 6.0 mph 11.0 mph 51 % 0.00 in 127 W/m2
18:17 50.7 °F 33.7 °F 30.53 in East 4.0 mph 10.0 mph 52 % 0.00 in 123 W/m2
18:22 50.5 °F 34.5 °F 30.53 in East 4.0 mph 8.0 mph 54 % 0.00 in 107 W/m2
18:27 50.4 °F 34.3 °F 30.53 in ENE 3.0 mph 8.0 mph 54 % 0.00 in 90 W/m2
18:28 50.4 °F 34.3 °F 30.53 in ENE 3.0 mph 8.0 mph 54 % 0.00 in 90 W/m2
18:32 50.4 °F 34.8 °F 30.53 in East 3.0 mph 8.0 mph 55 % 0.00 in 84 W/m2
18:37 50.0 °F 34.5 °F 30.54 in East 3.0 mph 7.0 mph 55 % 0.00 in 79 W/m2
18:43 49.8 °F 34.3 °F 30.54 in East 3.0 mph 8.0 mph 55 % 0.00 in 81 W/m2
18:48 49.6 °F 34.1 °F 30.54 in East 3.0 mph 8.0 mph 55 % 0.00 in 81 W/m2
18:53 49.6 °F 34.6 °F 30.54 in East 4.0 mph 8.0 mph 56 % 0.00 in 100 W/m2
18:58 49.5 °F 35.3 °F 30.54 in East 5.0 mph 11.0 mph 58 % 0.00 in 74 W/m2
19:03 49.3 °F 36.0 °F 30.54 in East 5.0 mph 11.0 mph 60 % 0.00 in 95 W/m2
19:08 49.1 °F 36.2 °F 30.55 in East 5.0 mph 9.0 mph 61 % 0.00 in 76 W/m2
19:13 48.9 °F 36.1 °F 30.55 in East 4.0 mph 9.0 mph 61 % 0.00 in 62 W/m2
19:18 48.7 °F 36.3 °F 30.54 in East 4.0 mph 8.0 mph 62 % 0.00 in 60 W/m2
19:23 48.6 °F 36.1 °F 30.54 in East 3.0 mph 8.0 mph 62 % 0.00 in 54 W/m2
19:28 48.6 °F 36.5 °F 30.54 in East 2.0 mph 7.0 mph 63 % 0.00 in 32 W/m2
19:33 48.4 °F 36.4 °F 30.55 in East 3.0 mph 7.0 mph 63 % 0.00 in 25 W/m2
19:38 48.0 °F 36.4 °F 30.55 in East 3.0 mph 7.0 mph 64 % 0.00 in 19 W/m2
19:43 47.8 °F 36.6 °F 30.55 in East 2.0 mph 6.0 mph 65 % 0.00 in 19 W/m2
19:48 47.7 °F 36.9 °F 30.55 in East 2.0 mph 7.0 mph 66 % 0.00 in 18 W/m2
19:53 47.5 °F 36.7 °F 30.55 in East 3.0 mph 7.0 mph 66 % 0.00 in 14 W/m2
19:58 47.3 °F 36.5 °F 30.55 in East 3.0 mph 7.0 mph 66 % 0.00 in 9 W/m2
20:03 47.1 °F 36.7 °F 30.55 in East 3.0 mph 7.0 mph 67 % 0.00 in 5 W/m2
20:08 46.9 °F 36.5 °F 30.55 in ESE 2.0 mph 6.0 mph 67 % 0.00 in 0 W/m2
20:13 46.8 °F 36.8 °F 30.55 in ESE 2.0 mph 6.0 mph 68 % 0.00 in 0 W/m2
20:18 46.6 °F 36.6 °F 30.55 in ESE 2.0 mph 6.0 mph 68 % 0.00 in 0 W/m2
20:19 46.6 °F 36.6 °F 30.55 in ESE 2.0 mph 6.0 mph 68 % 0.00 in 0 W/m2
20:24 46.6 °F 37.0 °F 30.55 in ESE 2.0 mph 6.0 mph 69 % 0.00 in 0 W/m2
20:29 46.4 °F 36.8 °F 30.55 in ESE 2.0 mph 6.0 mph 69 % 0.00 in 0 W/m2
20:34 46.4 °F 36.8 °F 30.55 in ESE 2.0 mph 6.0 mph 69 % 0.00 in 0 W/m2
20:39 46.2 °F 36.6 °F 30.55 in ESE 3.0 mph 7.0 mph 69 % 0.00 in 0 W/m2
20:44 46.2 °F 37.0 °F 30.55 in ESE 3.0 mph 7.0 mph 70 % 0.00 in 0 W/m2
20:49 46.0 °F 37.2 °F 30.56 in ESE 3.0 mph 8.0 mph 71 % 0.00 in 0 W/m2
20:54 46.0 °F 37.5 °F 30.56 in ESE 2.0 mph 8.0 mph 72 % 0.00 in 0 W/m2
20:59 46.0 °F 37.5 °F 30.56 in ESE 1.0 mph 6.0 mph 72 % 0.00 in 0 W/m2
21:04 46.0 °F 37.5 °F 30.56 in SE 2.0 mph 7.0 mph 72 % 0.00 in 0 W/m2
21:09 46.0 °F 37.9 °F 30.56 in SE 3.0 mph 8.0 mph 73 % 0.00 in 0 W/m2
21:14 45.9 °F 38.0 °F 30.56 in SE 4.0 mph 8.0 mph 74 % 0.00 in 0 W/m2
21:19 45.9 °F 38.0 °F 30.56 in SE 4.0 mph 8.0 mph 74 % 0.00 in 0 W/m2
21:24 45.7 °F 37.9 °F 30.57 in SE 4.0 mph 8.0 mph 74 % 0.00 in 0 W/m2
21:29 45.7 °F 38.2 °F 30.57 in SE 3.0 mph 8.0 mph 75 % 0.00 in 0 W/m2
21:34 45.7 °F 38.2 °F 30.57 in SE 2.0 mph 7.0 mph 75 % 0.00 in 0 W/m2
21:39 45.7 °F 38.2 °F 30.57 in SE 3.0 mph 7.0 mph 75 % 0.00 in 0 W/m2
21:44 45.5 °F 38.0 °F 30.57 in SE 4.0 mph 10.0 mph 75 % 0.00 in 0 W/m2
21:49 45.3 °F 38.2 °F 30.57 in ESE 4.0 mph 10.0 mph 76 % 0.00 in 0 W/m2
21:54 45.1 °F 38.0 °F 30.57 in ESE 4.0 mph 8.0 mph 76 % 0.00 in 0 W/m2
21:59 45.1 °F 38.0 °F 30.57 in ESE 4.0 mph 8.0 mph 76 % 0.00 in 0 W/m2
22:04 45.0 °F 38.2 °F 30.57 in SE 4.0 mph 8.0 mph 77 % 0.00 in 0 W/m2
22:09 45.0 °F 38.2 °F 30.57 in SE 4.0 mph 8.0 mph 77 % 0.00 in 0 W/m2
22:14 44.8 °F 38.0 °F 30.57 in SE 4.0 mph 8.0 mph 77 % 0.00 in 0 W/m2
22:19 44.8 °F 38.3 °F 30.58 in SE 3.0 mph 7.0 mph 78 % 0.00 in 0 W/m2
22:24 44.6 °F 38.2 °F 30.58 in SE 2.0 mph 6.0 mph 78 % 0.00 in 0 W/m2
22:29 44.4 °F 38.0 °F 30.58 in ESE 2.0 mph 7.0 mph 78 % 0.00 in 0 W/m2
22:34 44.4 °F 38.0 °F 30.58 in SE 2.0 mph 7.0 mph 78 % 0.00 in 0 W/m2
22:39 44.2 °F 38.1 °F 30.58 in SE 3.0 mph 7.0 mph 79 % 0.00 in 0 W/m2
22:44 44.2 °F 38.1 °F 30.58 in SE 2.0 mph 6.0 mph 79 % 0.00 in 0 W/m2
22:49 44.1 °F 38.0 °F 30.58 in SE 1.0 mph 5.0 mph 79 % 0.00 in 0 W/m2
22:54 44.1 °F 38.0 °F 30.59 in SE 1.0 mph 4.0 mph 79 % 0.00 in 0 W/m2
22:59 43.9 °F 38.1 °F 30.59 in SE 1.0 mph 5.0 mph 80 % 0.00 in 0 W/m2
23:04 43.9 °F 38.1 °F 30.59 in SE 1.0 mph 5.0 mph 80 % 0.00 in 0 W/m2
23:09 43.9 °F 38.1 °F 30.59 in SE 1.0 mph 4.0 mph 80 % 0.00 in 0 W/m2
23:14 43.7 °F 37.9 °F 30.59 in ESE 1.0 mph 4.0 mph 80 % 0.00 in 0 W/m2
23:19 43.7 °F 37.9 °F 30.59 in SE 2.0 mph 5.0 mph 80 % 0.00 in 0 W/m2
23:24 43.7 °F 37.9 °F 30.59 in SE 1.0 mph 5.0 mph 80 % 0.00 in 0 W/m2
23:29 43.5 °F 37.8 °F 30.59 in SE 1.0 mph 4.0 mph 80 % 0.00 in 0 W/m2
23:34 43.5 °F 37.8 °F 30.60 in Calm   3.0 mph 80 % 0.00 in 0 W/m2
23:39 43.5 °F 37.8 °F 30.60 in Calm   1.0 mph 80 % 0.00 in 0 W/m2
23:44 43.5 °F 37.8 °F 30.60 in Calm   2.0 mph 80 % 0.00 in 0 W/m2
23:49 43.3 °F 37.6 °F 30.60 in SE 1.0 mph 2.0 mph 80 % 0.00 in 0 W/m2
23:54 43.3 °F 37.6 °F 30.60 in SE 1.0 mph 5.0 mph 80 % 0.00 in 0 W/m2
23:59 43.3 °F 37.6 °F 30.60 in SE 2.0 mph 5.0 mph 80 % 0.00 in 0 W/m2
Delerius-Weather
Compliments of Weather Underground - 2.25 mb

Data updates at regular intervals.